EZY526Z EGPF-EGAA
Flight info
| Callsign | EZY526Z |
|---|---|
| Flight time | 0h 28m |
| Altitude | 24000 |
| Route | NORBO L186 TRN P600 BLACA DCT BELZU |
| Aircraft | A319/M-SDE3FGHIRWY/LB1 |
Departure
| Time | 2026-01-18 07:41 |
|---|---|
| Airport | Glasgow Airport (EGPF) |
Arrival
| Time | 2026-01-18 08:09 |
|---|---|
| Airport | Belfast International Airport (EGAA) |
| Time | Latitude | Longitude | Altitude | Speed | Heading |
|---|---|---|---|---|---|
| 2026-01-18 07:10 | 55.86707 | -4.43053 | 29 ft | 0 kts | 254° |
| 2026-01-18 07:31 | 55.86708 | -4.43050 | 29 ft | 1 kts | 254° |
| 2026-01-18 07:31 | 55.86714 | -4.42985 | 29 ft | 3 kts | 281° |
| 2026-01-18 07:32 | 55.86700 | -4.42948 | 29 ft | 0 kts | 344° |
| 2026-01-18 07:34 | 55.86702 | -4.42949 | 29 ft | 2 kts | 344° |
| 2026-01-18 07:35 | 55.86822 | -4.43193 | 29 ft | 14 kts | 253° |
| 2026-01-18 07:36 | 55.86729 | -4.43754 | 29 ft | 15 kts | 240° |
| 2026-01-18 07:36 | 55.86657 | -4.43903 | 29 ft | 17 kts | 225° |
| 2026-01-18 07:37 | 55.86475 | -4.44233 | 29 ft | 20 kts | 227° |
| 2026-01-18 07:37 | 55.86274 | -4.44609 | 29 ft | 15 kts | 226° |
| 2026-01-18 07:38 | 55.86286 | -4.44771 | 29 ft | 0 kts | 321° |
| 2026-01-18 07:38 | 55.86308 | -4.44804 | 29 ft | 6 kts | 319° |
| 2026-01-18 07:38 | 55.86372 | -4.44863 | 29 ft | 13 kts | 13° |
| 2026-01-18 07:39 | 55.86423 | -4.44770 | 29 ft | 0 kts | 46° |
| 2026-01-18 07:39 | 55.87019 | -4.43662 | 29 ft | 138 kts | 46° |
| 2026-01-18 07:40 | 55.89612 | -4.38825 | 1580 ft | 214 kts | 49° |
| 2026-01-18 07:40 | 55.90696 | -4.36788 | 2245 ft | 239 kts | 50° |
| 2026-01-18 07:41 | 55.95105 | -4.31583 | 5122 ft | 280 kts | 355° |
| 2026-01-18 07:42 | 55.98158 | -4.35471 | 7294 ft | 280 kts | 289° |
| 2026-01-18 07:42 | 55.97710 | -4.41995 | 9460 ft | 269 kts | 237° |
| 2026-01-18 07:43 | 55.95637 | -4.47709 | 10949 ft | 289 kts | 212° |
| 2026-01-18 07:43 | 55.93734 | -4.48839 | 11746 ft | 295 kts | 181° |
| 2026-01-18 07:43 | 55.90217 | -4.45263 | 13653 ft | 319 kts | 125° |
| 2026-01-18 07:44 | 55.85628 | -4.37729 | 16127 ft | 312 kts | 180° |
| 2026-01-18 07:45 | 55.81777 | -4.40951 | 17851 ft | 319 kts | 221° |
| 2026-01-18 07:45 | 55.78583 | -4.46527 | 19461 ft | 323 kts | 219° |
| 2026-01-18 07:46 | 55.75125 | -4.51807 | 20831 ft | 334 kts | 219° |
| 2026-01-18 07:46 | 55.73316 | -4.54547 | 21338 ft | 343 kts | 219° |
| 2026-01-18 07:46 | 55.69676 | -4.60207 | 22601 ft | 354 kts | 220° |
| 2026-01-18 07:47 | 55.65989 | -4.66072 | 23940 ft | 360 kts | 220° |
| 2026-01-18 07:47 | 55.62262 | -4.71978 | 24136 ft | 350 kts | 220° |
| 2026-01-18 07:48 | 55.55963 | -4.76495 | 24139 ft | 327 kts | 184° |
| 2026-01-18 07:49 | 55.51408 | -4.76823 | 24137 ft | 327 kts | 184° |
| 2026-01-18 07:49 | 55.46861 | -4.77180 | 24138 ft | 327 kts | 184° |
| 2026-01-18 07:49 | 55.44569 | -4.77361 | 24138 ft | 327 kts | 184° |
| 2026-01-18 07:50 | 55.40043 | -4.77716 | 23246 ft | 325 kts | 184° |
| 2026-01-18 07:51 | 55.33402 | -4.78221 | 22022 ft | 309 kts | 184° |
| 2026-01-18 07:51 | 55.29326 | -4.80155 | 21193 ft | 302 kts | 206° |
| 2026-01-18 07:52 | 55.27469 | -4.81811 | 20792 ft | 298 kts | 206° |
| 2026-01-18 07:52 | 55.21974 | -4.86640 | 19591 ft | 291 kts | 205° |
| 2026-01-18 07:53 | 55.18410 | -4.89757 | 18822 ft | 286 kts | 205° |
| 2026-01-18 07:53 | 55.14866 | -4.92851 | 18008 ft | 282 kts | 205° |
| 2026-01-18 07:54 | 55.11385 | -4.95887 | 17265 ft | 278 kts | 205° |
| 2026-01-18 07:54 | 55.09663 | -4.97390 | 16896 ft | 276 kts | 204° |
| 2026-01-18 07:55 | 55.04559 | -5.01841 | 15835 ft | 271 kts | 204° |
| 2026-01-18 07:55 | 55.02873 | -5.03303 | 15484 ft | 270 kts | 204° |
| 2026-01-18 07:56 | 54.99515 | -5.06214 | 14790 ft | 269 kts | 204° |
| 2026-01-18 07:56 | 54.94485 | -5.10575 | 13729 ft | 269 kts | 204° |
| 2026-01-18 07:57 | 54.92811 | -5.12020 | 13367 ft | 268 kts | 204° |
| 2026-01-18 07:57 | 54.87835 | -5.16310 | 12311 ft | 264 kts | 204° |
| 2026-01-18 07:58 | 54.85314 | -5.20903 | 11607 ft | 279 kts | 246° |
| 2026-01-18 07:58 | 54.84251 | -5.27394 | 10888 ft | 279 kts | 250° |
| 2026-01-18 07:59 | 54.83250 | -5.33874 | 10181 ft | 276 kts | 250° |
| 2026-01-18 07:59 | 54.82266 | -5.40245 | 9437 ft | 273 kts | 250° |
| 2026-01-18 08:00 | 54.81769 | -5.43424 | 9061 ft | 272 kts | 250° |
| 2026-01-18 08:00 | 54.80296 | -5.52866 | 7958 ft | 269 kts | 250° |
| 2026-01-18 08:01 | 54.79329 | -5.59062 | 7227 ft | 259 kts | 250° |
| 2026-01-18 08:01 | 54.78448 | -5.64822 | 6514 ft | 237 kts | 250° |
| 2026-01-18 08:02 | 54.77765 | -5.69379 | 5890 ft | 232 kts | 250° |
| 2026-01-18 08:02 | 54.77356 | -5.72073 | 5519 ft | 231 kts | 250° |
| 2026-01-18 08:02 | 54.76545 | -5.77413 | 4790 ft | 228 kts | 250° |
| 2026-01-18 08:03 | 54.75319 | -5.85329 | 3679 ft | 224 kts | 246° |
| 2026-01-18 08:03 | 54.74750 | -5.87827 | 3318 ft | 223 kts | 241° |
| 2026-01-18 08:04 | 54.72865 | -5.94966 | 2602 ft | 206 kts | 239° |
| 2026-01-18 08:05 | 54.71732 | -5.99230 | 2508 ft | 184 kts | 239° |
| 2026-01-18 08:05 | 54.70712 | -6.03055 | 2402 ft | 165 kts | 238° |
| 2026-01-18 08:06 | 54.69777 | -6.06557 | 1977 ft | 154 kts | 238° |
| 2026-01-18 08:06 | 54.68926 | -6.09741 | 1572 ft | 139 kts | 237° |
| 2026-01-18 08:07 | 54.68139 | -6.12680 | 1189 ft | 129 kts | 239° |
| 2026-01-18 08:07 | 54.67764 | -6.14077 | 1009 ft | 128 kts | 241° |
| 2026-01-18 08:07 | 54.67013 | -6.16872 | 666 ft | 128 kts | 240° |
| 2026-01-18 08:08 | 54.65921 | -6.20918 | 276 ft | 91 kts | 244° |
| 2026-01-18 08:09 | 54.65688 | -6.21797 | 273 ft | 29 kts | 246° |
| 2026-01-18 08:09 | 54.65614 | -6.22088 | 272 ft | 26 kts | 246° |
| 2026-01-18 08:10 | 54.65530 | -6.22713 | 272 ft | 14 kts | 334° |
| 2026-01-18 08:10 | 54.65630 | -6.22769 | 272 ft | 15 kts | 342° |
| 2026-01-18 08:11 | 54.65761 | -6.22372 | 272 ft | 18 kts | 82° |
| 2026-01-18 08:11 | 54.65837 | -6.21940 | 272 ft | 19 kts | 65° |
| 2026-01-18 08:11 | 54.65887 | -6.21751 | 275 ft | 14 kts | 65° |
| 2026-01-18 08:12 | 54.66013 | -6.21711 | 272 ft | 5 kts | 246° |
| 2026-01-18 08:12 | 54.65999 | -6.21763 | 272 ft | 4 kts | 244° |
| 2026-01-18 08:13 | 54.65997 | -6.21768 | 272 ft | 0 kts | 245° |